sensor_id;sensor_type;location;lat;lon;timestamp;P1;durP1;ratioP1;P2;durP2;ratioP2
74124;SDS011;62475;52.192;5.396;2022-08-25T00:00:16;18.98;;;15.05;;
74124;SDS011;62475;52.192;5.396;2022-08-25T00:02:42;17.63;;;14.60;;
74124;SDS011;62475;52.192;5.396;2022-08-25T00:05:08;17.02;;;14.48;;
74124;SDS011;62475;52.192;5.396;2022-08-25T00:07:33;15.35;;;13.70;;
74124;SDS011;62475;52.192;5.396;2022-08-25T00:09:58;16.38;;;14.68;;
74124;SDS011;62475;52.192;5.396;2022-08-25T00:12:24;19.90;;;15.38;;
74124;SDS011;62475;52.192;5.396;2022-08-25T00:14:50;17.98;;;14.23;;
74124;SDS011;62475;52.192;5.396;2022-08-25T00:17:15;21.60;;;15.98;;
74124;SDS011;62475;52.192;5.396;2022-08-25T00:19:40;18.35;;;15.15;;
74124;SDS011;62475;52.192;5.396;2022-08-25T00:22:06;19.70;;;14.50;;
74124;SDS011;62475;52.192;5.396;2022-08-25T00:24:31;17.20;;;14.90;;
74124;SDS011;62475;52.192;5.396;2022-08-25T00:26:57;16.27;;;14.35;;
74124;SDS011;62475;52.192;5.396;2022-08-25T00:29:24;16.23;;;14.52;;
74124;SDS011;62475;52.192;5.396;2022-08-25T00:31:53;18.10;;;15.65;;
74124;SDS011;62475;52.192;5.396;2022-08-25T00:34:21;18.75;;;13.88;;
74124;SDS011;62475;52.192;5.396;2022-08-25T00:36:49;16.30;;;14.38;;
74124;SDS011;62475;52.192;5.396;2022-08-25T00:44:12;16.55;;;14.30;;
74124;SDS011;62475;52.192;5.396;2022-08-25T00:46:51;18.90;;;15.38;;
74124;SDS011;62475;52.192;5.396;2022-08-25T00:49:19;12.50;;;11.02;;
74124;SDS011;62475;52.192;5.396;2022-08-25T00:51:59;13.50;;;11.45;;
74124;SDS011;62475;52.192;5.396;2022-08-25T00:55:02;15.48;;;13.68;;
74124;SDS011;62475;52.192;5.396;2022-08-25T00:57:27;15.75;;;14.05;;
74124;SDS011;62475;52.192;5.396;2022-08-25T00:59:57;16.58;;;13.95;;
74124;SDS011;62475;52.192;5.396;2022-08-25T01:02:22;15.93;;;13.98;;
74124;SDS011;62475;52.192;5.396;2022-08-25T01:04:48;16.40;;;14.70;;
74124;SDS011;62475;52.192;5.396;2022-08-25T01:07:14;15.90;;;13.38;;
74124;SDS011;62475;52.192;5.396;2022-08-25T01:09:41;15.45;;;13.43;;
74124;SDS011;62475;52.192;5.396;2022-08-25T01:12:08;15.20;;;13.45;;
74124;SDS011;62475;52.192;5.396;2022-08-25T01:14:33;17.50;;;14.57;;
74124;SDS011;62475;52.192;5.396;2022-08-25T01:17:00;17.90;;;14.68;;
74124;SDS011;62475;52.192;5.396;2022-08-25T01:19:26;18.48;;;14.30;;
74124;SDS011;62475;52.192;5.396;2022-08-25T01:21:53;18.40;;;16.05;;
74124;SDS011;62475;52.192;5.396;2022-08-25T01:24:30;18.05;;;15.20;;
74124;SDS011;62475;52.192;5.396;2022-08-25T01:27:07;20.40;;;15.88;;
74124;SDS011;62475;52.192;5.396;2022-08-25T01:29:33;19.33;;;14.95;;
74124;SDS011;62475;52.192;5.396;2022-08-25T01:32:02;21.38;;;15.05;;
74124;SDS011;62475;52.192;5.396;2022-08-25T01:34:30;18.30;;;14.98;;
74124;SDS011;62475;52.192;5.396;2022-08-25T01:36:57;16.25;;;14.35;;
74124;SDS011;62475;52.192;5.396;2022-08-25T01:39:25;16.85;;;13.80;;
74124;SDS011;62475;52.192;5.396;2022-08-25T01:42:02;14.00;;;12.27;;
74124;SDS011;62475;52.192;5.396;2022-08-25T01:44:33;16.10;;;12.30;;
74124;SDS011;62475;52.192;5.396;2022-08-25T01:47:01;13.55;;;11.65;;
74124;SDS011;62475;52.192;5.396;2022-08-25T01:49:27;13.75;;;11.55;;
74124;SDS011;62475;52.192;5.396;2022-08-25T01:52:00;12.23;;;10.82;;
74124;SDS011;62475;52.192;5.396;2022-08-25T01:54:30;11.65;;;9.82;;
74124;SDS011;62475;52.192;5.396;2022-08-25T01:56:56;10.63;;;8.90;;
74124;SDS011;62475;52.192;5.396;2022-08-25T01:59:22;9.50;;;8.32;;
74124;SDS011;62475;52.192;5.396;2022-08-25T02:01:48;11.00;;;8.63;;
74124;SDS011;62475;52.192;5.396;2022-08-25T02:04:14;11.13;;;8.17;;
74124;SDS011;62475;52.192;5.396;2022-08-25T02:06:39;9.63;;;8.63;;
74124;SDS011;62475;52.192;5.396;2022-08-25T02:09:06;9.50;;;8.50;;
74124;SDS011;62475;52.192;5.396;2022-08-25T02:11:37;8.82;;;7.95;;
74124;SDS011;62475;52.192;5.396;2022-08-25T02:14:04;9.90;;;8.50;;
74124;SDS011;62475;52.192;5.396;2022-08-25T02:16:31;9.73;;;8.32;;
74124;SDS011;62475;52.192;5.396;2022-08-25T02:19:00;11.85;;;8.77;;
74124;SDS011;62475;52.192;5.396;2022-08-25T02:21:26;10.98;;;8.55;;
74124;SDS011;62475;52.192;5.396;2022-08-25T02:23:51;9.40;;;8.38;;
74124;SDS011;62475;52.192;5.396;2022-08-25T02:26:17;11.00;;;8.23;;
74124;SDS011;62475;52.192;5.396;2022-08-25T02:28:44;12.23;;;8.00;;
74124;SDS011;62475;52.192;5.396;2022-08-25T02:31:11;11.40;;;8.02;;
74124;SDS011;62475;52.192;5.396;2022-08-25T02:33:37;9.68;;;8.73;;
74124;SDS011;62475;52.192;5.396;2022-08-25T02:36:03;8.80;;;7.75;;
74124;SDS011;62475;52.192;5.396;2022-08-25T02:38:29;12.23;;;8.02;;
74124;SDS011;62475;52.192;5.396;2022-08-25T02:40:58;10.52;;;7.07;;
74124;SDS011;62475;52.192;5.396;2022-08-25T02:43:25;11.82;;;7.35;;
74124;SDS011;62475;52.192;5.396;2022-08-25T02:45:52;7.97;;;7.18;;
74124;SDS011;62475;52.192;5.396;2022-08-25T02:48:19;9.70;;;7.38;;
74124;SDS011;62475;52.192;5.396;2022-08-25T02:50:48;8.90;;;7.10;;
74124;SDS011;62475;52.192;5.396;2022-08-25T02:53:18;8.73;;;7.55;;
74124;SDS011;62475;52.192;5.396;2022-08-25T02:55:44;10.20;;;7.60;;
74124;SDS011;62475;52.192;5.396;2022-08-25T02:58:11;10.85;;;7.15;;
74124;SDS011;62475;52.192;5.396;2022-08-25T03:00:37;9.57;;;6.47;;
74124;SDS011;62475;52.192;5.396;2022-08-25T03:03:02;7.28;;;6.32;;
74124;SDS011;62475;52.192;5.396;2022-08-25T03:05:28;10.57;;;6.43;;
74124;SDS011;62475;52.192;5.396;2022-08-25T03:07:53;9.10;;;6.82;;
74124;SDS011;62475;52.192;5.396;2022-08-25T03:10:20;9.70;;;6.03;;
74124;SDS011;62475;52.192;5.396;2022-08-25T03:12:45;6.88;;;5.93;;
74124;SDS011;62475;52.192;5.396;2022-08-25T03:15:11;8.93;;;6.13;;
74124;SDS011;62475;52.192;5.396;2022-08-25T03:17:40;8.32;;;6.22;;
74124;SDS011;62475;52.192;5.396;2022-08-25T03:20:07;10.80;;;5.85;;
74124;SDS011;62475;52.192;5.396;2022-08-25T03:22:33;7.65;;;6.07;;
74124;SDS011;62475;52.192;5.396;2022-08-25T03:24:58;11.23;;;5.88;;
74124;SDS011;62475;52.192;5.396;2022-08-25T03:27:42;7.75;;;5.35;;
74124;SDS011;62475;52.192;5.396;2022-08-25T03:30:08;7.93;;;5.43;;
74124;SDS011;62475;52.192;5.396;2022-08-25T03:32:34;6.82;;;5.32;;
74124;SDS011;62475;52.192;5.396;2022-08-25T03:35:00;8.32;;;5.53;;
74124;SDS011;62475;52.192;5.396;2022-08-25T03:37:25;8.60;;;5.20;;
74124;SDS011;62475;52.192;5.396;2022-08-25T03:39:51;6.60;;;5.22;;
74124;SDS011;62475;52.192;5.396;2022-08-25T03:42:16;6.63;;;4.97;;
74124;SDS011;62475;52.192;5.396;2022-08-25T03:44:42;7.50;;;5.07;;
74124;SDS011;62475;52.192;5.396;2022-08-25T03:47:07;8.07;;;4.82;;
74124;SDS011;62475;52.192;5.396;2022-08-25T03:49:32;6.80;;;5.00;;
74124;SDS011;62475;52.192;5.396;2022-08-25T03:51:57;7.50;;;5.40;;
74124;SDS011;62475;52.192;5.396;2022-08-25T03:54:24;6.40;;;4.97;;
74124;SDS011;62475;52.192;5.396;2022-08-25T03:56:50;7.25;;;4.65;;
74124;SDS011;62475;52.192;5.396;2022-08-25T03:59:16;6.70;;;5.18;;
74124;SDS011;62475;52.192;5.396;2022-08-25T04:01:42;8.10;;;5.13;;
74124;SDS011;62475;52.192;5.396;2022-08-25T04:04:10;9.23;;;5.10;;
74124;SDS011;62475;52.192;5.396;2022-08-25T04:06:37;6.20;;;4.45;;
74124;SDS011;62475;52.192;5.396;2022-08-25T04:09:03;6.00;;;4.65;;
74124;SDS011;62475;52.192;5.396;2022-08-25T04:11:29;7.72;;;4.97;;
74124;SDS011;62475;52.192;5.396;2022-08-25T04:13:55;7.97;;;3.92;;
74124;SDS011;62475;52.192;5.396;2022-08-25T04:16:26;7.93;;;4.53;;
74124;SDS011;62475;52.192;5.396;2022-08-25T04:18:55;7.30;;;4.28;;
74124;SDS011;62475;52.192;5.396;2022-08-25T04:21:22;8.25;;;4.30;;
74124;SDS011;62475;52.192;5.396;2022-08-25T04:23:48;6.00;;;4.03;;
74124;SDS011;62475;52.192;5.396;2022-08-25T04:26:16;5.88;;;4.60;;
74124;SDS011;62475;52.192;5.396;2022-08-25T04:28:44;6.07;;;4.18;;
74124;SDS011;62475;52.192;5.396;2022-08-25T04:31:11;7.05;;;4.28;;
74124;SDS011;62475;52.192;5.396;2022-08-25T04:33:40;7.15;;;4.30;;
74124;SDS011;62475;52.192;5.396;2022-08-25T04:36:07;7.90;;;5.60;;
74124;SDS011;62475;52.192;5.396;2022-08-25T04:38:37;4.80;;;3.95;;
74124;SDS011;62475;52.192;5.396;2022-08-25T04:41:04;5.68;;;4.20;;
74124;SDS011;62475;52.192;5.396;2022-08-25T04:43:32;7.10;;;4.47;;
74124;SDS011;62475;52.192;5.396;2022-08-25T04:45:58;7.47;;;4.13;;
74124;SDS011;62475;52.192;5.396;2022-08-25T04:48:24;5.57;;;4.00;;
74124;SDS011;62475;52.192;5.396;2022-08-25T04:50:50;8.75;;;5.05;;
74124;SDS011;62475;52.192;5.396;2022-08-25T04:53:16;4.97;;;3.80;;
74124;SDS011;62475;52.192;5.396;2022-08-25T04:55:43;4.95;;;3.90;;
74124;SDS011;62475;52.192;5.396;2022-08-25T04:58:10;10.52;;;4.30;;
74124;SDS011;62475;52.192;5.396;2022-08-25T05:00:36;8.45;;;4.05;;
74124;SDS011;62475;52.192;5.396;2022-08-25T05:03:02;7.57;;;4.40;;
74124;SDS011;62475;52.192;5.396;2022-08-25T05:05:28;6.07;;;3.95;;
74124;SDS011;62475;52.192;5.396;2022-08-25T05:07:54;5.22;;;4.03;;
74124;SDS011;62475;52.192;5.396;2022-08-25T05:10:19;8.50;;;4.03;;
74124;SDS011;62475;52.192;5.396;2022-08-25T05:12:45;5.57;;;4.18;;
74124;SDS011;62475;52.192;5.396;2022-08-25T05:15:11;4.32;;;3.80;;
74124;SDS011;62475;52.192;5.396;2022-08-25T05:17:55;8.02;;;3.78;;
74124;SDS011;62475;52.192;5.396;2022-08-25T05:20:21;6.75;;;4.50;;
74124;SDS011;62475;52.192;5.396;2022-08-25T05:22:47;6.35;;;4.03;;
74124;SDS011;62475;52.192;5.396;2022-08-25T05:25:12;6.93;;;4.10;;
74124;SDS011;62475;52.192;5.396;2022-08-25T05:27:38;7.68;;;3.45;;
74124;SDS011;62475;52.192;5.396;2022-08-25T05:30:04;5.30;;;4.05;;
74124;SDS011;62475;52.192;5.396;2022-08-25T05:32:30;9.40;;;4.00;;
74124;SDS011;62475;52.192;5.396;2022-08-25T05:34:56;8.38;;;3.72;;
74124;SDS011;62475;52.192;5.396;2022-08-25T05:37:21;7.22;;;4.10;;
74124;SDS011;62475;52.192;5.396;2022-08-25T05:39:46;6.38;;;4.07;;
74124;SDS011;62475;52.192;5.396;2022-08-25T05:42:12;4.70;;;3.47;;
74124;SDS011;62475;52.192;5.396;2022-08-25T05:44:37;8.88;;;3.97;;
74124;SDS011;62475;52.192;5.396;2022-08-25T05:47:03;8.25;;;3.75;;
74124;SDS011;62475;52.192;5.396;2022-08-25T05:49:28;8.43;;;3.70;;
74124;SDS011;62475;52.192;5.396;2022-08-25T05:51:54;9.25;;;3.33;;
74124;SDS011;62475;52.192;5.396;2022-08-25T05:54:19;7.03;;;4.07;;
74124;SDS011;62475;52.192;5.396;2022-08-25T05:56:44;8.20;;;3.70;;
74124;SDS011;62475;52.192;5.396;2022-08-25T05:59:10;6.68;;;3.88;;
74124;SDS011;62475;52.192;5.396;2022-08-25T06:01:35;9.10;;;4.20;;
74124;SDS011;62475;52.192;5.396;2022-08-25T06:04:19;5.60;;;3.70;;
74124;SDS011;62475;52.192;5.396;2022-08-25T06:06:46;8.30;;;3.83;;
74124;SDS011;62475;52.192;5.396;2022-08-25T06:09:12;8.52;;;4.10;;
74124;SDS011;62475;52.192;5.396;2022-08-25T06:11:39;5.30;;;3.55;;
74124;SDS011;62475;52.192;5.396;2022-08-25T06:14:05;9.07;;;3.60;;
74124;SDS011;62475;52.192;5.396;2022-08-25T06:16:33;9.40;;;3.70;;
74124;SDS011;62475;52.192;5.396;2022-08-25T06:18:58;9.35;;;3.95;;
74124;SDS011;62475;52.192;5.396;2022-08-25T06:21:24;7.80;;;3.88;;
74124;SDS011;62475;52.192;5.396;2022-08-25T06:23:50;8.82;;;4.13;;
74124;SDS011;62475;52.192;5.396;2022-08-25T06:26:15;5.82;;;3.72;;
74124;SDS011;62475;52.192;5.396;2022-08-25T06:28:40;5.87;;;3.43;;
74124;SDS011;62475;52.192;5.396;2022-08-25T06:31:07;8.18;;;3.58;;
74124;SDS011;62475;52.192;5.396;2022-08-25T06:33:32;7.28;;;3.72;;
74124;SDS011;62475;52.192;5.396;2022-08-25T06:35:58;5.97;;;4.05;;
74124;SDS011;62475;52.192;5.396;2022-08-25T06:38:23;6.40;;;3.80;;
74124;SDS011;62475;52.192;5.396;2022-08-25T06:40:49;5.65;;;3.58;;
74124;SDS011;62475;52.192;5.396;2022-08-25T06:43:17;7.13;;;3.78;;
74124;SDS011;62475;52.192;5.396;2022-08-25T06:45:43;9.70;;;4.93;;
74124;SDS011;62475;52.192;5.396;2022-08-25T06:48:08;5.40;;;4.20;;
74124;SDS011;62475;52.192;5.396;2022-08-25T06:50:34;7.35;;;4.18;;
74124;SDS011;62475;52.192;5.396;2022-08-25T06:53:03;6.57;;;4.20;;
74124;SDS011;62475;52.192;5.396;2022-08-25T06:55:28;9.05;;;4.10;;
74124;SDS011;62475;52.192;5.396;2022-08-25T06:57:54;8.13;;;4.57;;
74124;SDS011;62475;52.192;5.396;2022-08-25T07:00:19;5.65;;;4.18;;
74124;SDS011;62475;52.192;5.396;2022-08-25T07:02:44;5.07;;;3.95;;
74124;SDS011;62475;52.192;5.396;2022-08-25T07:05:11;9.02;;;4.53;;
74124;SDS011;62475;52.192;5.396;2022-08-25T07:07:36;8.98;;;4.70;;
74124;SDS011;62475;52.192;5.396;2022-08-25T07:10:02;7.78;;;4.60;;
74124;SDS011;62475;52.192;5.396;2022-08-25T07:12:28;9.25;;;4.35;;
74124;SDS011;62475;52.192;5.396;2022-08-25T07:14:53;5.22;;;4.18;;
74124;SDS011;62475;52.192;5.396;2022-08-25T07:17:20;5.57;;;4.45;;
74124;SDS011;62475;52.192;5.396;2022-08-25T07:19:47;7.07;;;4.38;;
74124;SDS011;62475;52.192;5.396;2022-08-25T07:22:13;9.70;;;3.95;;
74124;SDS011;62475;52.192;5.396;2022-08-25T07:24:38;10.25;;;4.32;;
74124;SDS011;62475;52.192;5.396;2022-08-25T07:27:03;8.38;;;4.50;;
74124;SDS011;62475;52.192;5.396;2022-08-25T07:29:29;7.45;;;3.28;;
74124;SDS011;62475;52.192;5.396;2022-08-25T07:31:56;7.10;;;3.80;;
74124;SDS011;62475;52.192;5.396;2022-08-25T07:34:22;5.80;;;3.40;;
74124;SDS011;62475;52.192;5.396;2022-08-25T07:37:06;7.47;;;3.45;;
74124;SDS011;62475;52.192;5.396;2022-08-25T07:39:32;6.68;;;3.67;;
74124;SDS011;62475;52.192;5.396;2022-08-25T07:41:58;5.15;;;3.03;;
74124;SDS011;62475;52.192;5.396;2022-08-25T07:44:24;6.97;;;3.35;;
74124;SDS011;62475;52.192;5.396;2022-08-25T07:46:51;6.95;;;3.35;;
74124;SDS011;62475;52.192;5.396;2022-08-25T07:49:17;12.02;;;3.20;;
74124;SDS011;62475;52.192;5.396;2022-08-25T07:51:44;7.30;;;3.40;;
74124;SDS011;62475;52.192;5.396;2022-08-25T07:54:10;5.47;;;3.65;;
74124;SDS011;62475;52.192;5.396;2022-08-25T07:56:36;6.72;;;3.70;;
74124;SDS011;62475;52.192;5.396;2022-08-25T07:59:01;5.78;;;3.22;;
74124;SDS011;62475;52.192;5.396;2022-08-25T08:01:27;7.57;;;3.22;;
74124;SDS011;62475;52.192;5.396;2022-08-25T08:03:52;5.32;;;2.88;;
74124;SDS011;62475;52.192;5.396;2022-08-25T08:06:20;4.55;;;3.17;;
74124;SDS011;62475;52.192;5.396;2022-08-25T08:08:47;4.07;;;3.40;;
74124;SDS011;62475;52.192;5.396;2022-08-25T08:11:19;8.57;;;3.22;;
74124;SDS011;62475;52.192;5.396;2022-08-25T08:13:48;5.57;;;3.40;;
74124;SDS011;62475;52.192;5.396;2022-08-25T08:16:14;4.50;;;2.85;;
74124;SDS011;62475;52.192;5.396;2022-08-25T08:18:41;7.68;;;3.33;;
74124;SDS011;62475;52.192;5.396;2022-08-25T08:21:41;4.95;;;3.05;;
74124;SDS011;62475;52.192;5.396;2022-08-25T08:26:26;8.93;;;3.30;;
74124;SDS011;62475;52.192;5.396;2022-08-25T08:28:52;7.65;;;3.22;;
74124;SDS011;62475;52.192;5.396;2022-08-25T08:31:19;7.47;;;3.08;;
74124;SDS011;62475;52.192;5.396;2022-08-25T08:33:46;8.75;;;2.85;;
74124;SDS011;62475;52.192;5.396;2022-08-25T08:36:14;5.85;;;3.30;;
74124;SDS011;62475;52.192;5.396;2022-08-25T08:38:40;8.13;;;3.17;;
74124;SDS011;62475;52.192;5.396;2022-08-25T08:44:59;6.18;;;2.83;;
74124;SDS011;62475;52.192;5.396;2022-08-25T08:52:58;8.68;;;3.20;;
74124;SDS011;62475;52.192;5.396;2022-08-25T08:55:31;6.32;;;2.97;;
74124;SDS011;62475;52.192;5.396;2022-08-25T08:58:06;4.30;;;3.15;;
74124;SDS011;62475;52.192;5.396;2022-08-25T09:00:38;7.18;;;3.30;;
74124;SDS011;62475;52.192;5.396;2022-08-25T09:03:09;5.57;;;2.53;;
74124;SDS011;62475;52.192;5.396;2022-08-25T09:05:43;4.63;;;2.50;;
74124;SDS011;62475;52.192;5.396;2022-08-25T09:08:11;4.70;;;2.97;;
74124;SDS011;62475;52.192;5.396;2022-08-25T09:11:00;7.30;;;3.33;;
74124;SDS011;62475;52.192;5.396;2022-08-25T09:16:13;6.43;;;2.53;;
74124;SDS011;62475;52.192;5.396;2022-08-25T09:21:33;9.25;;;3.35;;
74124;SDS011;62475;52.192;5.396;2022-08-25T09:27:12;7.47;;;3.05;;
74124;SDS011;62475;52.192;5.396;2022-08-25T09:29:58;5.18;;;3.00;;
74124;SDS011;62475;52.192;5.396;2022-08-25T09:32:38;6.35;;;2.55;;
74124;SDS011;62475;52.192;5.396;2022-08-25T09:35:07;6.93;;;2.60;;
74124;SDS011;62475;52.192;5.396;2022-08-25T09:37:39;3.70;;;2.78;;
74124;SDS011;62475;52.192;5.396;2022-08-25T09:40:04;5.57;;;2.60;;
74124;SDS011;62475;52.192;5.396;2022-08-25T09:42:48;6.15;;;3.35;;
74124;SDS011;62475;52.192;5.396;2022-08-25T09:45:16;5.80;;;2.50;;
74124;SDS011;62475;52.192;5.396;2022-08-25T09:50:21;6.37;;;2.73;;
74124;SDS011;62475;52.192;5.396;2022-08-25T09:52:46;9.43;;;3.50;;
74124;SDS011;62475;52.192;5.396;2022-08-25T10:00:18;6.75;;;2.90;;
74124;SDS011;62475;52.192;5.396;2022-08-25T10:03:06;5.35;;;2.78;;
74124;SDS011;62475;52.192;5.396;2022-08-25T10:05:55;8.32;;;2.90;;
74124;SDS011;62475;52.192;5.396;2022-08-25T10:08:31;5.65;;;2.65;;
74124;SDS011;62475;52.192;5.396;2022-08-25T10:11:28;4.80;;;2.47;;
74124;SDS011;62475;52.192;5.396;2022-08-25T10:14:14;4.75;;;3.08;;
74124;SDS011;62475;52.192;5.396;2022-08-25T10:17:15;4.53;;;2.60;;
74124;SDS011;62475;52.192;5.396;2022-08-25T10:22:34;5.85;;;2.80;;
74124;SDS011;62475;52.192;5.396;2022-08-25T10:25:02;5.32;;;2.85;;
74124;SDS011;62475;52.192;5.396;2022-08-25T10:35:01;4.20;;;2.70;;
74124;SDS011;62475;52.192;5.396;2022-08-25T10:43:05;6.22;;;3.13;;
74124;SDS011;62475;52.192;5.396;2022-08-25T10:45:42;3.72;;;2.40;;
74124;SDS011;62475;52.192;5.396;2022-08-25T10:48:32;3.95;;;2.15;;
74124;SDS011;62475;52.192;5.396;2022-08-25T10:53:56;3.58;;;2.50;;
74124;SDS011;62475;52.192;5.396;2022-08-25T10:56:35;4.40;;;2.40;;
74124;SDS011;62475;52.192;5.396;2022-08-25T10:59:20;6.10;;;2.60;;
74124;SDS011;62475;52.192;5.396;2022-08-25T11:07:24;4.57;;;2.30;;
74124;SDS011;62475;52.192;5.396;2022-08-25T11:10:12;3.40;;;2.30;;
74124;SDS011;62475;52.192;5.396;2022-08-25T11:12:42;5.93;;;2.33;;
74124;SDS011;62475;52.192;5.396;2022-08-25T11:15:13;4.43;;;2.60;;
74124;SDS011;62475;52.192;5.396;2022-08-25T11:17:57;5.55;;;2.40;;
74124;SDS011;62475;52.192;5.396;2022-08-25T11:23:09;4.10;;;2.17;;
74124;SDS011;62475;52.192;5.396;2022-08-25T11:25:41;4.47;;;2.00;;
74124;SDS011;62475;52.192;5.396;2022-08-25T11:28:20;4.10;;;2.80;;
74124;SDS011;62475;52.192;5.396;2022-08-25T11:30:55;3.80;;;2.38;;
74124;SDS011;62475;52.192;5.396;2022-08-25T11:33:23;3.15;;;2.47;;
74124;SDS011;62475;52.192;5.396;2022-08-25T11:36:01;4.50;;;2.35;;
74124;SDS011;62475;52.192;5.396;2022-08-25T11:41:06;3.28;;;2.20;;
74124;SDS011;62475;52.192;5.396;2022-08-25T11:57:52;5.57;;;2.38;;
74124;SDS011;62475;52.192;5.396;2022-08-25T12:00:41;3.42;;;2.20;;
74124;SDS011;62475;52.192;5.396;2022-08-25T12:06:17;5.55;;;2.10;;
74124;SDS011;62475;52.192;5.396;2022-08-25T12:11:43;6.13;;;2.28;;
74124;SDS011;62475;52.192;5.396;2022-08-25T12:22:37;4.45;;;2.00;;
74124;SDS011;62475;52.192;5.396;2022-08-25T12:27:08;3.27;;;2.07;;
74124;SDS011;62475;52.192;5.396;2022-08-25T12:29:48;3.72;;;2.08;;
74124;SDS011;62475;52.192;5.396;2022-08-25T12:32:35;4.63;;;2.33;;
74124;SDS011;62475;52.192;5.396;2022-08-25T12:35:16;3.97;;;1.90;;
74124;SDS011;62475;52.192;5.396;2022-08-25T12:42:59;4.13;;;2.17;;
74124;SDS011;62475;52.192;5.396;2022-08-25T12:45:39;5.97;;;2.53;;
74124;SDS011;62475;52.192;5.396;2022-08-25T12:53:38;4.22;;;2.35;;
74124;SDS011;62475;52.192;5.396;2022-08-25T12:58:35;3.90;;;2.10;;
74124;SDS011;62475;52.192;5.396;2022-08-25T13:01:32;6.38;;;1.95;;
74124;SDS011;62475;52.192;5.396;2022-08-25T13:09:45;4.35;;;2.13;;
74124;SDS011;62475;52.192;5.396;2022-08-25T13:12:20;4.00;;;2.25;;
74124;SDS011;62475;52.192;5.396;2022-08-25T13:14:54;4.43;;;2.33;;
74124;SDS011;62475;52.192;5.396;2022-08-25T13:17:28;3.65;;;2.13;;
74124;SDS011;62475;52.192;5.396;2022-08-25T13:22:37;3.20;;;1.85;;
74124;SDS011;62475;52.192;5.396;2022-08-25T13:25:02;4.80;;;1.80;;
74124;SDS011;62475;52.192;5.396;2022-08-25T13:27:29;3.67;;;1.90;;
74124;SDS011;62475;52.192;5.396;2022-08-25T13:30:00;4.15;;;1.90;;
74124;SDS011;62475;52.192;5.396;2022-08-25T13:32:27;4.57;;;2.00;;
74124;SDS011;62475;52.192;5.396;2022-08-25T13:37:52;3.42;;;2.20;;
74124;SDS011;62475;52.192;5.396;2022-08-25T13:42:44;2.77;;;2.00;;
74124;SDS011;62475;52.192;5.396;2022-08-25T13:45:16;3.25;;;2.22;;
74124;SDS011;62475;52.192;5.396;2022-08-25T13:47:43;5.03;;;2.40;;
74124;SDS011;62475;52.192;5.396;2022-08-25T13:50:52;3.85;;;2.58;;
74124;SDS011;62475;52.192;5.396;2022-08-25T13:55:28;2.70;;;2.30;;
74124;SDS011;62475;52.192;5.396;2022-08-25T13:58:16;3.70;;;2.30;;
74124;SDS011;62475;52.192;5.396;2022-08-25T14:00:44;6.35;;;2.58;;
74124;SDS011;62475;52.192;5.396;2022-08-25T14:03:29;2.88;;;2.60;;
74124;SDS011;62475;52.192;5.396;2022-08-25T14:08:41;3.33;;;2.75;;
74124;SDS011;62475;52.192;5.396;2022-08-25T14:13:36;3.72;;;2.05;;
74124;SDS011;62475;52.192;5.396;2022-08-25T14:17:04;4.57;;;2.50;;
74124;SDS011;62475;52.192;5.396;2022-08-25T14:19:13;2.83;;;2.20;;
74124;SDS011;62475;52.192;5.396;2022-08-25T14:21:40;3.85;;;2.30;;
74124;SDS011;62475;52.192;5.396;2022-08-25T14:24:06;4.60;;;2.38;;
74124;SDS011;62475;52.192;5.396;2022-08-25T14:26:32;4.63;;;2.33;;
74124;SDS011;62475;52.192;5.396;2022-08-25T14:28:57;4.35;;;2.40;;
74124;SDS011;62475;52.192;5.396;2022-08-25T14:31:24;3.08;;;2.20;;
74124;SDS011;62475;52.192;5.396;2022-08-25T14:34:00;4.22;;;2.25;;
74124;SDS011;62475;52.192;5.396;2022-08-25T14:36:29;4.00;;;2.58;;
74124;SDS011;62475;52.192;5.396;2022-08-25T14:38:55;3.72;;;2.40;;
74124;SDS011;62475;52.192;5.396;2022-08-25T14:41:21;5.32;;;2.80;;
74124;SDS011;62475;52.192;5.396;2022-08-25T14:43:48;3.28;;;2.60;;
74124;SDS011;62475;52.192;5.396;2022-08-25T14:46:32;3.78;;;2.20;;
74124;SDS011;62475;52.192;5.396;2022-08-25T14:49:01;2.95;;;2.28;;
74124;SDS011;62475;52.192;5.396;2022-08-25T14:51:29;5.53;;;2.28;;
74124;SDS011;62475;52.192;5.396;2022-08-25T14:53:58;5.80;;;2.67;;
74124;SDS011;62475;52.192;5.396;2022-08-25T14:56:26;2.60;;;2.17;;
74124;SDS011;62475;52.192;5.396;2022-08-25T14:58:52;2.60;;;2.40;;
74124;SDS011;62475;52.192;5.396;2022-08-25T15:01:17;2.75;;;2.00;;
74124;SDS011;62475;52.192;5.396;2022-08-25T15:03:46;3.92;;;2.20;;
74124;SDS011;62475;52.192;5.396;2022-08-25T15:06:13;3.72;;;2.47;;
74124;SDS011;62475;52.192;5.396;2022-08-25T15:08:40;3.67;;;2.15;;
74124;SDS011;62475;52.192;5.396;2022-08-25T15:11:25;3.75;;;2.22;;
74124;SDS011;62475;52.192;5.396;2022-08-25T15:13:51;3.97;;;2.60;;
74124;SDS011;62475;52.192;5.396;2022-08-25T15:16:25;3.92;;;2.45;;
74124;SDS011;62475;52.192;5.396;2022-08-25T15:18:56;2.33;;;2.13;;
74124;SDS011;62475;52.192;5.396;2022-08-25T15:21:22;3.38;;;2.53;;
74124;SDS011;62475;52.192;5.396;2022-08-25T15:23:47;3.42;;;2.28;;
74124;SDS011;62475;52.192;5.396;2022-08-25T15:26:13;3.47;;;2.47;;
74124;SDS011;62475;52.192;5.396;2022-08-25T15:28:40;3.85;;;2.42;;
74124;SDS011;62475;52.192;5.396;2022-08-25T15:31:08;2.42;;;2.20;;
74124;SDS011;62475;52.192;5.396;2022-08-25T15:33:34;3.10;;;2.13;;
74124;SDS011;62475;52.192;5.396;2022-08-25T15:35:59;2.90;;;2.03;;
74124;SDS011;62475;52.192;5.396;2022-08-25T15:38:25;3.20;;;2.40;;
74124;SDS011;62475;52.192;5.396;2022-08-25T15:40:50;5.00;;;2.53;;
74124;SDS011;62475;52.192;5.396;2022-08-25T15:43:15;4.80;;;2.30;;
74124;SDS011;62475;52.192;5.396;2022-08-25T15:45:42;6.45;;;2.40;;
74124;SDS011;62475;52.192;5.396;2022-08-25T15:48:07;4.45;;;2.58;;
74124;SDS011;62475;52.192;5.396;2022-08-25T15:50:32;4.50;;;2.10;;
74124;SDS011;62475;52.192;5.396;2022-08-25T15:52:58;3.65;;;2.28;;
74124;SDS011;62475;52.192;5.396;2022-08-25T15:55:23;4.00;;;2.42;;
74124;SDS011;62475;52.192;5.396;2022-08-25T15:57:49;5.82;;;2.20;;
74124;SDS011;62475;52.192;5.396;2022-08-25T16:00:14;3.50;;;2.40;;
74124;SDS011;62475;52.192;5.396;2022-08-25T16:02:41;4.63;;;2.55;;
74124;SDS011;62475;52.192;5.396;2022-08-25T16:05:07;4.45;;;2.80;;
74124;SDS011;62475;52.192;5.396;2022-08-25T16:07:34;3.30;;;2.40;;
74124;SDS011;62475;52.192;5.396;2022-08-25T16:10:00;3.20;;;1.95;;
74124;SDS011;62475;52.192;5.396;2022-08-25T16:12:25;4.07;;;2.45;;
74124;SDS011;62475;52.192;5.396;2022-08-25T16:14:51;3.95;;;2.35;;
74124;SDS011;62475;52.192;5.396;2022-08-25T16:17:17;3.40;;;2.20;;
74124;SDS011;62475;52.192;5.396;2022-08-25T16:19:43;2.97;;;2.30;;
74124;SDS011;62475;52.192;5.396;2022-08-25T16:22:10;3.10;;;2.80;;
74124;SDS011;62475;52.192;5.396;2022-08-25T16:24:39;2.80;;;2.50;;
74124;SDS011;62475;52.192;5.396;2022-08-25T16:27:10;3.97;;;2.75;;
74124;SDS011;62475;52.192;5.396;2022-08-25T16:29:37;3.70;;;2.63;;
74124;SDS011;62475;52.192;5.396;2022-08-25T16:32:07;4.25;;;2.03;;
74124;SDS011;62475;52.192;5.396;2022-08-25T16:34:34;5.03;;;2.33;;
74124;SDS011;62475;52.192;5.396;2022-08-25T16:36:59;3.20;;;2.90;;
74124;SDS011;62475;52.192;5.396;2022-08-25T16:39:25;5.35;;;2.78;;
74124;SDS011;62475;52.192;5.396;2022-08-25T16:41:51;6.82;;;3.28;;
74124;SDS011;62475;52.192;5.396;2022-08-25T16:44:17;6.68;;;4.32;;
74124;SDS011;62475;52.192;5.396;2022-08-25T16:46:43;3.38;;;2.83;;
74124;SDS011;62475;52.192;5.396;2022-08-25T16:49:09;4.57;;;2.83;;
74124;SDS011;62475;52.192;5.396;2022-08-25T16:51:35;3.88;;;2.58;;
74124;SDS011;62475;52.192;5.396;2022-08-25T16:54:02;2.33;;;2.13;;
74124;SDS011;62475;52.192;5.396;2022-08-25T16:56:52;3.83;;;2.97;;
74124;SDS011;62475;52.192;5.396;2022-08-25T16:59:17;5.20;;;2.50;;
74124;SDS011;62475;52.192;5.396;2022-08-25T17:01:43;4.93;;;2.67;;